メインページ
METAR-TAF:

METAR-TAF

空港 :

ベレン, パラー州, ブラジル

緯度: 01-23S, 経度: 048-29W, 海抜: 16m

現時点の気象観測

当レポートは25分前の21:00(UTC)に作成
南/南西の風 3kt
気温 26°C
湿度 84%
気圧 1014 hPa
視程10km以上
高度2000ftの雲はほとんどない

METAR: SBBE 162100Z 20003KT 9999 FEW020 26/23 Q1014

時間: 18:25 (21:25 UTC)

予報

当レポートは5時間25分前の16:00(UTC)に作成
予報は16日の 18時(UTC)から 17日の 18時(UTC)まで有効
の風 5kt
視程10km以上
高度3500ftの千切れ雲あり
高度4000ftの雲はほとんどない, 塔状積雲.
16日の 22時(UTC)から 16日の 24時(UTC)まで徐々に
東/北東の風 5kt
高度2000ftの雲はほとんどない
17日の 01時(UTC)から 17日の 03時(UTC)まで徐々に
視程10km以上
1,500メートル以下は雲なし、積乱雲なし
17日の 10時(UTC)から 17日の 12時(UTC)まで徐々に
東/北東の風 10kt
視程10km以上
高度1500ftの雲は散在している
17日の 12時(UTC)から 17日の 14時(UTC)まで徐々に
の風 10kt
高度2500ftの千切れ雲あり
17日の 15時(UTC)から 17日の 17時(UTC)まで徐々に
高度3000ftの千切れ雲あり
高度3500ftの雲はほとんどない, 塔状積雲.

TAF: SBBE 161600Z 1618/1718 35005KT 9999 BKN035 FEW040TCU TN23/1709Z T X31/1717Z BECMG 1622/1624 06005KT FEW020 BECMG 1701/1703 CAVOK BECMG 1710/1712 07010KT 9999 SCT015 BECMG 1712/1714 10010KT BKN025 BECMG 1715/1717 3 3008KT BKN030 FEW035TCU RMK PFD

4,000以上の空港の気象観測と天気予報(METAR報とTAF報)

利用可能な観測所は地図上に黄色い丸と赤い丸で示す。

丸の上にカーソルを重ねると観測所名を参照できる。

次にクリックすると気象観測と天気予報を参照できる。

マップの切り替え:黒色「×」印の緑ボタンをクリックして拡大、「-」印の緑ボタンをクリックして縮小、緑色の三角印をクリックして隣りの地図に切り替え


METAR-TAF: